Terminal Aerodrome Forecast
Issued by NWS Corpus Christi, TX

Home | Current Version | Previous Version | Text Only | Print | Product List | Glossary On
Versions: 1 2 3 4 5 6 7 8 9 10 11 12 13 14 15 16
000
FTUS44 KCRP 230520
TAFVCT
TAF
KVCT 230520Z 2306/2406 12006KT P6SM SCT015 BKN025
      TEMPO 2307/2309 BKN015
     FM230900 12005KT P6SM BKN015 OVC060
     FM231500 15011KT P6SM VCTS SCT025CB BKN035 PROB30 2316/2320 4SM
      TSRA BR BKN015CB OVC030
     FM232000 14014G20KT P6SM VCTS SCT045CB OVC100
      TEMPO 2320/2324 VRB20G35KT 2SM +TSRA BR OVC015CB
     FM240200 11008KT P6SM VCTS SCT020CB=

USA.gov is the U.S. government's official web portal to all federal, state and local government web resources and services.